Kelvedon Hatch, United Kingdom
Current Conditions -  °F | °C
As of 1:20 AM on Saturday 29 Nov 2014 (Local Time) from EGSS Reporting Station
Clear Clear  
Wind Chill: 50°   Ceiling: Unl
Heat Index: 50°   Visibility: 4mi
Dew Point: 48°   Wind: 12mph
Humidity: 94%   Direction: 100°E
Pressure: 29.77"   Gusts: NA
Location:  51.67°N, 0.27°E
Report Text: EGSS 290120Z 10010KT 6000 NSC 10/09 Q1008
Loading
Personal Weather Stations






























Interactive Weather Map New forecast layout! Learn more

10-Day Weather Forecast

Advertisements
Track Severe Weather on mobile